Time;durP1;ratioP1;P1;durP2;ratioP2;P2;SDS_P1;SDS_P2;PMS_P1;PMS_P2;Temp;Humidity;BMP_temperature;BMP_pressure;BME280_temperature;BME280_humidity;BME280_pressure;Samples;Min_cycle;Max_cycle;Signal;HPM_P1;HPM_P2
2022/05/09 00:00:30;;;;;;;11.35;5.47;;;;;;;;;;5037516;28;20099;-68
2022/05/09 00:03:08;;;;;;;15.82;6.10;;;;;;;;;;5045477;28;20084;-68
2022/05/09 00:05:33;;;;;;;16.10;5.63;;;;;;;;;;5027663;28;20457;-68
2022/05/09 00:07:59;;;;;;;13.13;4.97;;;;;;;;;;5035679;28;20109;-68
2022/05/09 00:10:37;;;;;;;13.05;5.22;;;;;;;;;;5040153;28;20040;-68
2022/05/09 00:13:02;;;;;;;15.70;5.78;;;;;;;;;;5033862;28;20422;-68
2022/05/09 00:15:28;;;;;;;12.68;6.15;;;;;;;;;;5040939;28;20080;-68
2022/05/09 00:18:07;;;;;;;15.15;6.10;;;;;;;;;;5036206;28;20060;-68
2022/05/09 00:20:32;;;;;;;12.80;5.88;;;;;;;;;;5039111;28;20128;-67
2022/05/09 00:22:58;;;;;;;15.48;6.38;;;;;;;;;;5027957;28;20053;-68
2022/05/09 00:25:36;;;;;;;14.40;5.55;;;;;;;;;;5031422;28;20037;-68
2022/05/09 00:28:02;;;;;;;17.20;5.65;;;;;;;;;;5040927;28;20449;-68
2022/05/09 00:30:27;;;;;;;16.23;5.25;;;;;;;;;;5031753;28;20060;-67
2022/05/09 00:33:05;;;;;;;14.88;5.97;;;;;;;;;;5045108;28;20095;-68
2022/05/09 00:35:31;;;;;;;16.58;6.10;;;;;;;;;;5040147;28;20080;-68
2022/05/09 00:37:56;;;;;;;13.45;4.88;;;;;;;;;;5035911;28;20034;-68
2022/05/09 00:40:35;;;;;;;14.82;5.25;;;;;;;;;;5059451;28;20056;-68
2022/05/09 00:43:02;;;;;;;13.32;5.50;;;;;;;;;;5043381;28;20045;-68
2022/05/09 00:45:27;;;;;;;14.40;6.18;;;;;;;;;;5039419;28;20688;-68
2022/05/09 00:48:08;;;;;;;17.35;5.57;;;;;;;;;;5035495;28;20037;-68
2022/05/09 00:50:34;;;;;;;12.23;5.50;;;;;;;;;;5037364;28;20048;-68
2022/05/09 00:53:14;;;;;;;14.10;5.50;;;;;;;;;;5035833;28;20017;-68
2022/05/09 00:55:44;;;;;;;20.00;5.50;;;;;;;;;;5038256;28;20037;-67
2022/05/09 00:58:51;;;;;;;12.80;5.07;;;;;;;;;;5034235;28;20020;-68
2022/05/09 01:01:17;;;;;;;12.55;5.68;;;;;;;;;;5059261;28;20057;-68
2022/05/09 01:04:15;;;;;;;15.90;6.03;;;;;;;;;;5058598;28;20033;-68
2022/05/09 01:06:41;;;;;;;11.05;5.13;;;;;;;;;;5030775;28;20116;-68
2022/05/09 01:09:13;;;;;;;9.98;4.75;;;;;;;;;;5035104;28;20108;-68
2022/05/09 01:11:48;;;;;;;16.50;5.85;;;;;;;;;;5040999;28;20045;-68
2022/05/09 01:14:23;;;;;;;14.85;5.75;;;;;;;;;;5036396;28;20041;-68
2022/05/09 01:16:55;;;;;;;15.77;5.18;;;;;;;;;;5054806;28;20053;-68
2022/05/09 01:19:36;;;;;;;12.43;5.13;;;;;;;;;;5038572;28;20039;-68
2022/05/09 01:22:27;;;;;;;12.18;5.03;;;;;;;;;;5051258;28;20477;-68
2022/05/09 01:25:02;;;;;;;18.67;4.80;;;;;;;;;;5037963;28;20063;-68
2022/05/09 01:27:35;;;;;;;16.13;5.15;;;;;;;;;;5044028;28;20121;-68
2022/05/09 01:30:19;;;;;;;16.70;5.20;;;;;;;;;;5032049;28;20045;-68
2022/05/09 01:33:22;;;;;;;12.05;5.38;;;;;;;;;;5064329;28;20037;-68
2022/05/09 01:35:57;;;;;;;10.93;4.78;;;;;;;;;;5032522;28;20037;-68
2022/05/09 01:38:35;;;;;;;18.35;5.00;;;;;;;;;;5054395;28;20030;-68
2022/05/09 01:41:07;;;;;;;14.27;5.90;;;;;;;;;;5029442;28;20397;-68
2022/05/09 01:43:48;;;;;;;13.52;4.75;;;;;;;;;;5032702;28;20044;-67
2022/05/09 01:46:23;;;;;;;17.45;4.88;;;;;;;;;;5032147;28;20445;-68
2022/05/09 01:51:46;;;;;;;10.10;4.78;;;;;;;;;;5025536;28;20111;-68
2022/05/09 01:54:21;;;;;;;14.52;4.70;;;;;;;;;;5036029;28;20034;-68
2022/05/09 01:56:54;;;;;;;16.55;5.10;;;;;;;;;;5052244;28;20392;-68
2022/05/09 01:59:19;;;;;;;12.85;4.63;;;;;;;;;;5032532;28;20038;-68
2022/05/09 02:02:10;;;;;;;19.45;4.88;;;;;;;;;;5036488;28;20025;-68
2022/05/09 02:04:40;;;;;;;12.85;4.72;;;;;;;;;;5034768;28;20049;-67
2022/05/09 02:07:23;;;;;;;10.55;4.57;;;;;;;;;;5032578;28;20393;-68
2022/05/09 02:09:49;;;;;;;14.15;4.97;;;;;;;;;;5035147;28;20124;-68
2022/05/09 02:12:27;;;;;;;14.30;5.68;;;;;;;;;;5034553;28;20497;-68
2022/05/09 02:14:53;;;;;;;11.30;5.20;;;;;;;;;;5035485;28;20048;-68
2022/05/09 02:17:19;;;;;;;14.38;5.38;;;;;;;;;;5034728;28;20025;-67
2022/05/09 02:19:58;;;;;;;12.40;4.70;;;;;;;;;;5034145;28;20041;-68
2022/05/09 02:22:24;;;;;;;11.85;4.63;;;;;;;;;;5035090;28;20132;-68
2022/05/09 02:24:49;;;;;;;21.50;5.57;;;;;;;;;;5034747;28;20123;-67
2022/05/09 02:27:28;;;;;;;13.48;4.90;;;;;;;;;;5037832;28;20040;-67
2022/05/09 02:29:54;;;;;;;15.50;4.88;;;;;;;;;;5034029;28;20044;-68
2022/05/09 02:32:20;;;;;;;11.07;4.82;;;;;;;;;;5035311;28;20036;-68
2022/05/09 02:34:58;;;;;;;10.85;4.78;;;;;;;;;;5041491;28;20400;-68
2022/05/09 02:37:23;;;;;;;12.38;4.70;;;;;;;;;;5024560;28;20411;-68
2022/05/09 02:39:49;;;;;;;12.27;4.45;;;;;;;;;;5038991;28;20108;-68
2022/05/09 02:42:27;;;;;;;19.08;4.95;;;;;;;;;;5037208;28;20033;-68
2022/05/09 02:44:54;;;;;;;10.23;4.28;;;;;;;;;;5033515;28;20029;-68
2022/05/09 02:47:20;;;;;;;13.93;4.93;;;;;;;;;;5033948;28;20026;-67
2022/05/09 02:49:59;;;;;;;14.70;4.82;;;;;;;;;;5033379;28;20469;-68
2022/05/09 02:52:24;;;;;;;12.95;4.60;;;;;;;;;;5041059;28;20581;-68
2022/05/09 02:54:50;;;;;;;12.35;4.50;;;;;;;;;;5035921;28;20033;-67
2022/05/09 02:57:29;;;;;;;12.88;4.28;;;;;;;;;;5034564;28;20109;-68
2022/05/09 02:59:54;;;;;;;14.68;4.82;;;;;;;;;;5036941;28;20477;-68
2022/05/09 03:02:20;;;;;;;14.35;4.50;;;;;;;;;;5042436;28;20032;-68
2022/05/09 03:04:58;;;;;;;21.50;5.35;;;;;;;;;;5034341;28;20033;-68
2022/05/09 03:07:24;;;;;;;11.20;4.95;;;;;;;;;;5032696;28;20041;-68
2022/05/09 03:09:50;;;;;;;16.73;4.63;;;;;;;;;;5035060;28;20465;-68
2022/05/09 03:12:28;;;;;;;14.25;4.80;;;;;;;;;;5033861;28;20033;-67
2022/05/09 03:14:54;;;;;;;8.35;4.43;;;;;;;;;;5032274;28;20029;-68
2022/05/09 03:17:19;;;;;;;16.90;5.05;;;;;;;;;;5032796;28;20082;-67
2022/05/09 03:19:57;;;;;;;11.77;4.30;;;;;;;;;;5033127;28;20387;-68
2022/05/09 03:22:23;;;;;;;10.45;4.35;;;;;;;;;;5036447;28;20386;-68
2022/05/09 03:24:48;;;;;;;11.05;4.60;;;;;;;;;;5038839;28;20029;-68
2022/05/09 03:27:27;;;;;;;18.88;4.32;;;;;;;;;;5041814;28;20045;-67
2022/05/09 03:29:52;;;;;;;9.52;4.43;;;;;;;;;;5039639;28;20451;-68
2022/05/09 03:32:18;;;;;;;14.00;4.13;;;;;;;;;;5046826;28;20107;-68
2022/05/09 03:34:56;;;;;;;16.20;4.70;;;;;;;;;;5044295;28;20040;-68
2022/05/09 03:37:21;;;;;;;12.20;4.00;;;;;;;;;;5040642;28;20034;-68
2022/05/09 03:39:47;;;;;;;10.85;4.07;;;;;;;;;;5040631;28;20523;-68
2022/05/09 03:42:25;;;;;;;14.38;4.57;;;;;;;;;;5040750;28;20101;-68
2022/05/09 03:44:51;;;;;;;12.40;4.00;;;;;;;;;;5041748;28;20034;-68
2022/05/09 03:47:17;;;;;;;15.75;4.68;;;;;;;;;;5043617;28;20385;-68
2022/05/09 03:49:57;;;;;;;11.55;4.07;;;;;;;;;;5040414;28;20043;-68
2022/05/09 03:52:22;;;;;;;17.05;4.28;;;;;;;;;;5037494;28;20493;-67
2022/05/09 03:54:49;;;;;;;19.63;4.43;;;;;;;;;;5053892;28;20087;-68
2022/05/09 03:57:27;;;;;;;11.10;4.63;;;;;;;;;;5032336;28;20029;-68
2022/05/09 03:59:53;;;;;;;11.23;4.72;;;;;;;;;;5031303;28;20034;-68
2022/05/09 04:02:18;;;;;;;14.75;4.20;;;;;;;;;;5046236;28;20021;-68
2022/05/09 04:04:57;;;;;;;9.15;4.15;;;;;;;;;;5044690;28;20033;-68
2022/05/09 04:07:29;;;;;;;11.40;4.18;;;;;;;;;;5040028;28;20053;-68
2022/05/09 04:10:09;;;;;;;14.65;4.38;;;;;;;;;;5038697;28;20050;-67
2022/05/09 04:12:34;;;;;;;10.07;4.38;;;;;;;;;;5040054;28;20128;-67
2022/05/09 04:17:57;;;;;;;15.32;4.70;;;;;;;;;;5038958;28;20400;-68
2022/05/09 04:20:24;;;;;;;8.68;3.42;;;;;;;;;;5039370;28;20551;-68
2022/05/09 04:22:51;;;;;;;10.45;4.00;;;;;;;;;;5038093;28;20449;-68
2022/05/09 04:25:31;;;;;;;13.93;4.47;;;;;;;;;;5039812;28;20032;-67
2022/05/09 04:28:02;;;;;;;15.10;4.00;;;;;;;;;;5039372;28;20038;-68
2022/05/09 04:30:41;;;;;;;8.75;3.88;;;;;;;;;;5043706;28;20037;-68
2022/05/09 04:33:07;;;;;;;11.60;4.13;;;;;;;;;;5047215;28;20568;-67
2022/05/09 04:35:34;;;;;;;20.70;4.20;;;;;;;;;;5037327;28;20052;-68
2022/05/09 04:38:13;;;;;;;15.80;4.25;;;;;;;;;;5061202;28;20025;-68
2022/05/09 04:40:39;;;;;;;17.42;4.05;;;;;;;;;;5033964;28;20422;-68
2022/05/09 04:43:04;;;;;;;13.90;3.97;;;;;;;;;;5030201;28;20079;-68
2022/05/09 04:45:43;;;;;;;15.20;4.13;;;;;;;;;;5036892;28;20036;-68
2022/05/09 04:48:09;;;;;;;12.23;4.22;;;;;;;;;;5030935;28;20112;-68
2022/05/09 04:50:34;;;;;;;12.23;4.07;;;;;;;;;;5036054;28;20539;-67
2022/05/09 04:53:13;;;;;;;10.48;3.95;;;;;;;;;;5032470;28;20080;-67
2022/05/09 04:55:39;;;;;;;16.42;3.78;;;;;;;;;;5047203;28;20088;-68
2022/05/09 04:58:05;;;;;;;8.93;3.20;;;;;;;;;;5043692;28;20477;-68
2022/05/09 05:00:43;;;;;;;11.70;3.67;;;;;;;;;;5035271;28;20033;-68
2022/05/09 05:03:09;;;;;;;9.23;3.72;;;;;;;;;;5039060;28;20032;-68
2022/05/09 05:05:35;;;;;;;10.45;3.95;;;;;;;;;;5037424;28;20016;-68
2022/05/09 05:08:13;;;;;;;9.15;3.83;;;;;;;;;;5035365;28;20026;-68
2022/05/09 05:10:39;;;;;;;9.98;3.65;;;;;;;;;;5055070;28;20409;-68
2022/05/09 05:13:05;;;;;;;12.95;3.65;;;;;;;;;;5029445;28;20040;-68
2022/05/09 05:15:43;;;;;;;6.93;3.28;;;;;;;;;;5034934;28;20171;-68
2022/05/09 05:18:09;;;;;;;11.13;3.20;;;;;;;;;;5035388;28;20060;-68
2022/05/09 05:20:35;;;;;;;7.93;3.35;;;;;;;;;;5036129;28;20464;-68
2022/05/09 05:23:15;;;;;;;8.27;3.40;;;;;;;;;;5035155;28;20030;-68
2022/05/09 05:25:44;;;;;;;11.60;3.15;;;;;;;;;;5028400;28;20033;-68
2022/05/09 05:28:23;;;;;;;5.57;2.85;;;;;;;;;;5035194;28;20067;-68
2022/05/09 05:30:49;;;;;;;11.27;3.15;;;;;;;;;;5034184;28;20071;-68
2022/05/09 05:33:15;;;;;;;5.07;2.63;;;;;;;;;;5033245;28;20033;-68
2022/05/09 05:35:54;;;;;;;8.77;2.80;;;;;;;;;;5033715;28;20104;-68
2022/05/09 05:38:20;;;;;;;12.30;3.17;;;;;;;;;;5031971;28;20033;-68
2022/05/09 05:40:45;;;;;;;12.60;2.90;;;;;;;;;;5040976;28;20040;-68
2022/05/09 05:43:23;;;;;;;12.20;2.90;;;;;;;;;;5034854;28;20029;-68
2022/05/09 05:45:57;;;;;;;7.55;2.70;;;;;;;;;;5042128;28;20033;-68
2022/05/09 05:48:35;;;;;;;7.57;2.88;;;;;;;;;;5034089;28;20377;-68
2022/05/09 05:51:01;;;;;;;5.43;2.42;;;;;;;;;;5033960;28;20475;-68
2022/05/09 05:53:27;;;;;;;9.65;2.85;;;;;;;;;;5032434;28;20108;-68
2022/05/09 05:56:06;;;;;;;8.63;2.88;;;;;;;;;;5041104;28;20113;-68
2022/05/09 05:58:32;;;;;;;10.27;2.53;;;;;;;;;;5033845;28;20465;-68
2022/05/09 06:00:57;;;;;;;7.55;3.40;;;;;;;;;;5038335;28;20083;-68
2022/05/09 06:03:36;;;;;;;4.78;2.53;;;;;;;;;;5046404;28;20017;-68
2022/05/09 06:06:02;;;;;;;4.38;2.58;;;;;;;;;;5042943;28;20074;-68
2022/05/09 06:08:27;;;;;;;3.97;2.25;;;;;;;;;;5034050;28;20025;-68
2022/05/09 06:11:06;;;;;;;5.35;2.58;;;;;;;;;;5034241;28;20033;-68
2022/05/09 06:13:32;;;;;;;4.88;2.17;;;;;;;;;;5031510;28;20033;-68
2022/05/09 06:15:57;;;;;;;3.97;2.22;;;;;;;;;;5029960;28;20053;-68
2022/05/09 06:18:35;;;;;;;5.15;2.17;;;;;;;;;;5031747;28;20112;-68
2022/05/09 06:21:01;;;;;;;4.28;2.03;;;;;;;;;;5040519;28;20037;-68
2022/05/09 06:23:27;;;;;;;5.50;2.20;;;;;;;;;;5040805;28;20029;-68
2022/05/09 06:26:06;;;;;;;7.07;2.10;;;;;;;;;;5039286;28;20044;-68
2022/05/09 06:28:32;;;;;;;6.15;1.88;;;;;;;;;;5037495;28;20033;-68
2022/05/09 06:30:57;;;;;;;5.50;2.22;;;;;;;;;;5039795;28;20037;-68
2022/05/09 06:33:36;;;;;;;3.35;1.75;;;;;;;;;;5039343;28;20116;-68
2022/05/09 06:36:02;;;;;;;4.32;1.80;;;;;;;;;;5026870;28;20110;-68
2022/05/09 06:38:28;;;;;;;3.45;1.77;;;;;;;;;;5033505;28;20053;-68
2022/05/09 06:41:10;;;;;;;5.03;2.10;;;;;;;;;;5037830;28;20040;-68
2022/05/09 06:43:36;;;;;;;4.32;1.90;;;;;;;;;;5033525;28;20064;-68
2022/05/09 06:46:14;;;;;;;4.38;1.63;;;;;;;;;;5034735;28;20030;-69
2022/05/09 06:48:40;;;;;;;4.50;1.80;;;;;;;;;;5030990;28;20554;-68
2022/05/09 06:51:05;;;;;;;4.70;1.80;;;;;;;;;;5028182;28;20021;-68
2022/05/09 06:53:45;;;;;;;3.22;1.80;;;;;;;;;;5033383;28;20413;-69
2022/05/09 06:56:11;;;;;;;6.45;1.95;;;;;;;;;;5037647;28;20030;-69
2022/05/09 06:58:37;;;;;;;4.88;2.08;;;;;;;;;;5032740;28;20389;-69
2022/05/09 07:01:23;;;;;;;7.65;2.20;;;;;;;;;;5032726;28;20029;-68
2022/05/09 07:03:49;;;;;;;4.88;1.73;;;;;;;;;;5038964;28;20508;-69
2022/05/09 07:06:20;;;;;;;4.93;1.77;;;;;;;;;;5040641;28;20041;-68
2022/05/09 07:08:52;;;;;;;7.72;1.98;;;;;;;;;;5035261;28;20068;-69
2022/05/09 07:11:17;;;;;;;7.72;2.15;;;;;;;;;;5038348;28;20049;-68
2022/05/09 07:13:50;;;;;;;7.78;2.00;;;;;;;;;;5032999;28;20025;-68
2022/05/09 07:16:22;;;;;;;5.97;2.00;;;;;;;;;;5062087;28;20057;-68
2022/05/09 07:18:48;;;;;;;7.43;2.07;;;;;;;;;;5033204;28;20038;-69
2022/05/09 07:21:19;;;;;;;7.72;2.38;;;;;;;;;;5033979;28;20025;-68
2022/05/09 07:23:51;;;;;;;5.57;2.17;;;;;;;;;;5033060;28;20042;-68
2022/05/09 07:26:17;;;;;;;6.55;2.20;;;;;;;;;;5037220;28;20116;-68
2022/05/09 07:28:48;;;;;;;8.38;2.22;;;;;;;;;;5031277;28;20425;-68
2022/05/09 07:31:20;;;;;;;7.05;2.45;;;;;;;;;;5031940;28;20030;-69
2022/05/09 07:33:46;;;;;;;9.27;2.25;;;;;;;;;;5032318;28;20037;-68
2022/05/09 07:36:18;;;;;;;9.88;1.90;;;;;;;;;;5032953;28;20033;-68
2022/05/09 07:38:50;;;;;;;6.60;2.20;;;;;;;;;;5033116;28;20048;-69
2022/05/09 07:41:16;;;;;;;7.50;1.95;;;;;;;;;;5032762;28;20045;-69
2022/05/09 07:43:47;;;;;;;6.97;1.90;;;;;;;;;;5037405;28;20043;-69
2022/05/09 07:46:19;;;;;;;6.93;1.90;;;;;;;;;;5032895;28;20042;-69
2022/05/09 07:48:46;;;;;;;7.00;1.92;;;;;;;;;;5032684;28;20511;-69
2022/05/09 07:51:27;;;;;;;8.20;2.08;;;;;;;;;;5034736;28;20021;-69
2022/05/09 07:53:52;;;;;;;9.68;1.92;;;;;;;;;;5035010;28;20041;-69
2022/05/09 07:56:17;;;;;;;7.88;1.95;;;;;;;;;;5032460;28;20025;-68
2022/05/09 07:58:56;;;;;;;9.77;2.15;;;;;;;;;;5032874;28;20029;-69
2022/05/09 08:01:22;;;;;;;5.32;2.00;;;;;;;;;;5032738;28;20049;-69
2022/05/09 08:03:47;;;;;;;8.18;2.42;;;;;;;;;;5032771;28;20458;-69
2022/05/09 08:06:25;;;;;;;6.95;2.10;;;;;;;;;;5032924;28;20033;-69
2022/05/09 08:08:51;;;;;;;8.68;2.03;;;;;;;;;;5032337;28;20422;-69
2022/05/09 08:11:17;;;;;;;11.98;2.10;;;;;;;;;;5035940;28;20117;-68
2022/05/09 08:13:55;;;;;;;9.50;1.98;;;;;;;;;;5036493;28;20075;-69
2022/05/09 08:16:21;;;;;;;11.85;2.47;;;;;;;;;;5034872;28;20420;-69
2022/05/09 08:18:46;;;;;;;8.57;1.80;;;;;;;;;;5036257;28;20038;-69
2022/05/09 08:21:25;;;;;;;8.35;1.95;;;;;;;;;;5035889;28;20509;-69
2022/05/09 08:23:51;;;;;;;8.70;2.83;;;;;;;;;;5035148;28;20053;-69
2022/05/09 08:26:19;;;;;;;5.45;1.95;;;;;;;;;;5046252;28;20024;-69
2022/05/09 08:28:58;;;;;;;7.63;1.90;;;;;;;;;;5038687;28;20033;-68
2022/05/09 08:31:24;;;;;;;9.90;2.25;;;;;;;;;;5051937;28;20087;-69
2022/05/09 08:33:51;;;;;;;8.13;2.22;;;;;;;;;;5036279;28;20045;-69
2022/05/09 08:36:46;;;;;;;8.40;2.28;;;;;;;;;;5032921;28;20109;-69
2022/05/09 08:39:12;;;;;;;8.45;2.53;;;;;;;;;;5033323;28;20037;-69
2022/05/09 08:42:07;;;;;;;10.38;2.15;;;;;;;;;;5040273;28;20041;-69
2022/05/09 08:44:53;;;;;;;6.28;2.00;;;;;;;;;;5030305;28;20040;-69
2022/05/09 08:47:53;;;;;;;7.63;2.20;;;;;;;;;;5032966;28;20111;-70
2022/05/09 08:51:05;;;;;;;6.50;2.35;;;;;;;;;;5023043;28;20044;-69
2022/05/09 08:53:45;;;;;;;10.02;2.67;;;;;;;;;;5042367;28;20033;-69
2022/05/09 08:56:14;;;;;;;7.22;2.30;;;;;;;;;;5025080;28;20116;-68
2022/05/09 08:59:03;;;;;;;8.50;2.40;;;;;;;;;;5027444;28;20366;-69
2022/05/09 09:01:46;;;;;;;7.38;2.40;;;;;;;;;;5042186;28;20033;-69
2022/05/09 09:04:29;;;;;;;8.45;2.25;;;;;;;;;;5047030;28;20029;-69
2022/05/09 09:07:12;;;;;;;8.48;2.35;;;;;;;;;;5031459;28;20091;-69
2022/05/09 09:10:25;;;;;;;14.20;2.85;;;;;;;;;;5036934;28;20389;-68
2022/05/09 09:13:00;;;;;;;8.95;3.25;;;;;;;;;;5020441;28;20452;-69
2022/05/09 09:15:53;;;;;;;10.73;2.63;;;;;;;;;;5027101;28;20049;-69
2022/05/09 09:18:37;;;;;;;10.57;2.90;;;;;;;;;;5062036;28;20049;-69
2022/05/09 09:21:20;;;;;;;9.43;2.83;;;;;;;;;;5030232;28;20037;-70
2022/05/09 09:24:11;;;;;;;9.00;2.90;;;;;;;;;;5027758;28;20038;-69
2022/05/09 09:26:58;;;;;;;11.05;3.22;;;;;;;;;;5062892;28;20041;-69
2022/05/09 09:29:31;;;;;;;7.07;3.05;;;;;;;;;;5031374;28;20469;-69
2022/05/09 09:32:20;;;;;;;7.68;3.42;;;;;;;;;;5030216;28;20452;-69
2022/05/09 09:34:54;;;;;;;9.43;3.47;;;;;;;;;;5030789;28;20042;-69
2022/05/09 09:37:38;;;;;;;14.70;3.90;;;;;;;;;;5027686;28;20112;-69
2022/05/09 09:40:05;;;;;;;9.00;3.85;;;;;;;;;;5031133;28;20036;-69
2022/05/09 09:42:37;;;;;;;9.38;3.72;;;;;;;;;;5031241;28;20124;-69
2022/05/09 09:45:21;;;;;;;9.48;4.45;;;;;;;;;;5042609;28;20107;-69
2022/05/09 09:48:22;;;;;;;11.10;4.13;;;;;;;;;;5030080;28;20041;-69
2022/05/09 09:51:07;;;;;;;11.50;4.00;;;;;;;;;;5026006;28;20037;-69
2022/05/09 09:53:52;;;;;;;12.73;4.57;;;;;;;;;;5017249;28;20116;-69
2022/05/09 09:56:27;;;;;;;12.32;4.35;;;;;;;;;;5030782;28;20386;-69
2022/05/09 09:59:16;;;;;;;12.00;4.75;;;;;;;;;;5031289;28;20049;-69
2022/05/09 10:01:48;;;;;;;15.15;4.78;;;;;;;;;;5031201;28;20037;-69
2022/05/09 10:04:26;;;;;;;11.25;4.45;;;;;;;;;;5033288;28;20041;-69
2022/05/09 10:07:12;;;;;;;9.45;4.25;;;;;;;;;;5025584;28;20060;-69
2022/05/09 10:10:04;;;;;;;11.68;4.15;;;;;;;;;;5020975;28;20047;-68
2022/05/09 10:12:38;;;;;;;13.98;5.13;;;;;;;;;;5029958;28;20096;-69
2022/05/09 10:15:22;;;;;;;14.98;4.95;;;;;;;;;;5014643;28;20083;-69
2022/05/09 10:17:54;;;;;;;15.30;5.03;;;;;;;;;;5028443;28;20052;-68
2022/05/09 10:20:29;;;;;;;14.18;4.82;;;;;;;;;;5030662;28;20033;-68
2022/05/09 10:26:29;;;;;;;9.75;4.82;;;;;;;;;;5014311;28;20087;-69
2022/05/09 10:29:12;;;;;;;15.02;4.78;;;;;;;;;;5030602;28;20044;-69
2022/05/09 10:31:44;;;;;;;14.25;4.75;;;;;;;;;;5030412;28;20175;-68
2022/05/09 10:34:20;;;;;;;16.70;5.25;;;;;;;;;;5028798;28;20126;-69
2022/05/09 10:37:00;;;;;;;10.38;4.82;;;;;;;;;;5028401;28;20053;-68
2022/05/09 10:39:41;;;;;;;10.98;4.60;;;;;;;;;;5036149;28;20120;-68
2022/05/09 10:42:17;;;;;;;14.98;6.03;;;;;;;;;;5028068;28;20469;-69
2022/05/09 10:45:13;;;;;;;17.75;6.00;;;;;;;;;;5061493;28;20082;-69
2022/05/09 10:47:52;;;;;;;16.90;6.28;;;;;;;;;;5049367;28;20038;-68
2022/05/09 10:50:24;;;;;;;13.90;6.20;;;;;;;;;;5025423;28;20041;-68
2022/05/09 10:53:24;;;;;;;20.27;5.95;;;;;;;;;;5028606;28;20076;-68
2022/05/09 10:56:08;;;;;;;14.98;5.65;;;;;;;;;;5028412;28;20044;-69
2022/05/09 10:58:43;;;;;;;10.70;5.82;;;;;;;;;;5040276;28;20489;-69
2022/05/09 11:01:19;;;;;;;19.35;6.47;;;;;;;;;;5028928;28;20108;-69
2022/05/09 11:03:53;;;;;;;15.98;5.47;;;;;;;;;;5029968;28;20033;-68
2022/05/09 11:06:37;;;;;;;21.38;6.13;;;;;;;;;;5028255;28;20037;-68
2022/05/09 11:09:15;;;;;;;13.80;6.47;;;;;;;;;;5028471;28;20095;-68
2022/05/09 11:12:10;;;;;;;13.30;5.00;;;;;;;;;;5028880;28;20045;-68
2022/05/09 11:15:29;;;;;;;14.02;5.88;;;;;;;;;;5028910;28;20040;-68
2022/05/09 11:18:39;;;;;;;14.10;5.85;;;;;;;;;;5004554;28;20056;-69
2022/05/09 11:21:22;;;;;;;16.05;5.63;;;;;;;;;;5012774;28;20060;-68
2022/05/09 11:24:28;;;;;;;17.45;6.28;;;;;;;;;;5053300;28;20038;-69
2022/05/09 11:27:13;;;;;;;13.45;6.22;;;;;;;;;;5029248;28;20069;-69
2022/05/09 11:30:18;;;;;;;13.70;5.53;;;;;;;;;;5025927;28;20030;-69
2022/05/09 11:33:00;;;;;;;17.67;5.75;;;;;;;;;;5022151;28;20041;-68
2022/05/09 11:35:33;;;;;;;15.95;6.32;;;;;;;;;;5039091;28;20033;-69
2022/05/09 11:38:27;;;;;;;12.80;5.63;;;;;;;;;;5032165;28;20037;-68
2022/05/09 11:41:08;;;;;;;16.50;5.88;;;;;;;;;;5026263;28;20030;-68
2022/05/09 11:43:40;;;;;;;18.83;5.85;;;;;;;;;;5032351;28;20046;-68
2022/05/09 11:46:22;;;;;;;14.23;5.75;;;;;;;;;;5035161;28;20044;-68
2022/05/09 11:49:28;;;;;;;15.30;5.95;;;;;;;;;;5029069;28;20037;-69
2022/05/09 11:52:01;;;;;;;18.58;5.82;;;;;;;;;;5026619;28;20052;-68
2022/05/09 11:54:43;;;;;;;12.13;4.85;;;;;;;;;;5035531;28;20045;-68
2022/05/09 11:57:40;;;;;;;17.70;6.10;;;;;;;;;;5048833;28;20025;-68
2022/05/09 12:00:35;;;;;;;12.85;5.22;;;;;;;;;;5038210;28;20040;-69
2022/05/09 12:03:13;;;;;;;16.30;5.38;;;;;;;;;;5022443;28;20046;-69
2022/05/09 12:06:01;;;;;;;12.90;5.30;;;;;;;;;;5037224;28;20037;-69
2022/05/09 12:08:55;;;;;;;12.23;5.18;;;;;;;;;;5029591;28;20392;-68
2022/05/09 12:11:45;;;;;;;11.98;5.47;;;;;;;;;;5034649;28;20025;-68
2022/05/09 12:14:44;;;;;;;8.27;4.50;;;;;;;;;;5030929;28;20087;-68
2022/05/09 12:17:20;;;;;;;13.77;4.22;;;;;;;;;;5056318;28;20052;-68
2022/05/09 12:19:52;;;;;;;8.93;4.63;;;;;;;;;;5057039;28;20099;-68
2022/05/09 12:22:38;;;;;;;18.17;5.40;;;;;;;;;;5022652;28;20041;-68
2022/05/09 12:25:16;;;;;;;14.07;5.80;;;;;;;;;;5037024;28;20083;-69
2022/05/09 12:28:05;;;;;;;15.65;5.78;;;;;;;;;;5036412;28;20139;-69
2022/05/09 12:30:50;;;;;;;14.43;6.00;;;;;;;;;;5036585;28;20053;-68
2022/05/09 12:33:47;;;;;;;16.15;5.72;;;;;;;;;;5035325;28;20026;-68
2022/05/09 12:36:34;;;;;;;11.75;4.78;;;;;;;;;;5025998;28;20519;-68
2022/05/09 12:39:30;;;;;;;13.73;4.95;;;;;;;;;;5035372;28;20078;-68
2022/05/09 12:42:05;;;;;;;11.93;4.72;;;;;;;;;;5033508;28;20533;-69
2022/05/09 12:44:46;;;;;;;12.70;4.03;;;;;;;;;;5057978;28;20041;-68
2022/05/09 12:47:22;;;;;;;14.80;4.93;;;;;;;;;;5049877;28;20042;-68
2022/05/09 12:50:05;;;;;;;13.57;4.07;;;;;;;;;;5049361;28;20546;-68
2022/05/09 12:52:40;;;;;;;13.70;4.05;;;;;;;;;;5035179;28;20055;-68
2022/05/09 12:58:03;;;;;;;15.65;4.18;;;;;;;;;;5035593;28;20500;-68
2022/05/09 13:00:37;;;;;;;11.45;4.45;;;;;;;;;;5034068;28;20045;-68
2022/05/09 13:03:12;;;;;;;14.27;4.60;;;;;;;;;;5035197;28;20034;-68
2022/05/09 13:05:45;;;;;;;9.75;4.20;;;;;;;;;;5034009;28;20029;-69
2022/05/09 13:08:18;;;;;;;12.40;3.95;;;;;;;;;;5030409;28;20041;-68
2022/05/09 13:10:57;;;;;;;15.32;3.92;;;;;;;;;;5033613;28;20049;-69
2022/05/09 13:13:40;;;;;;;10.90;3.63;;;;;;;;;;5035111;28;20095;-68
2022/05/09 13:16:26;;;;;;;9.98;3.28;;;;;;;;;;5032961;28;20045;-69
2022/05/09 13:18:57;;;;;;;9.50;3.25;;;;;;;;;;5040031;28;20037;-68
2022/05/09 13:21:38;;;;;;;9.90;3.95;;;;;;;;;;5063316;28;20045;-68
2022/05/09 13:24:12;;;;;;;8.68;3.65;;;;;;;;;;5029201;28;20096;-68
2022/05/09 13:26:53;;;;;;;10.38;3.75;;;;;;;;;;5033250;28;20064;-69
2022/05/09 13:29:43;;;;;;;12.23;5.00;;;;;;;;;;5040476;28;20032;-68
2022/05/09 13:32:29;;;;;;;9.23;3.85;;;;;;;;;;5032086;28;20042;-68
2022/05/09 13:35:01;;;;;;;11.48;4.47;;;;;;;;;;5048287;28;20502;-69
2022/05/09 13:37:35;;;;;;;12.38;4.50;;;;;;;;;;5032256;28;20489;-68
2022/05/09 13:40:18;;;;;;;12.35;4.18;;;;;;;;;;5032951;28;20116;-68
2022/05/09 13:42:51;;;;;;;;;;;;;;;;;;5032972;28;20087;-68
2022/05/09 13:45:35;;;;;;;11.30;4.20;;;;;;;;;;5024626;28;19928;-68
2022/05/09 13:48:12;;;;;;;9.90;4.53;;;;;;;;;;5033479;28;20067;-68
2022/05/09 13:50:48;;;;;;;10.43;4.18;;;;;;;;;;5048825;28;20033;-68
2022/05/09 13:53:26;;;;;;;12.23;4.13;;;;;;;;;;5027941;28;20143;-69
2022/05/09 13:55:58;;;;;;;10.35;3.30;;;;;;;;;;5035807;28;20130;-68
2022/05/09 13:58:31;;;;;;;9.48;3.28;;;;;;;;;;5029737;28;20469;-68
2022/05/09 14:00:58;;;;;;;7.13;2.75;;;;;;;;;;5048488;28;20072;-69
2022/05/09 14:03:49;;;;;;;7.75;2.88;;;;;;;;;;5029273;28;20041;-68
2022/05/09 14:06:20;;;;;;;8.35;3.05;;;;;;;;;;5047461;28;20044;-68
2022/05/09 14:08:59;;;;;;;14.90;3.00;;;;;;;;;;5047730;28;20039;-68
2022/05/09 14:11:31;;;;;;;9.50;2.67;;;;;;;;;;5046314;28;20044;-68
2022/05/09 14:14:12;;;;;;;12.43;2.50;;;;;;;;;;5032688;28;20087;-69
2022/05/09 14:16:45;;;;;;;9.93;3.05;;;;;;;;;;5045809;28;20579;-69
2022/05/09 14:19:30;;;;;;;7.32;2.30;;;;;;;;;;5047692;28;20453;-68
2022/05/09 14:22:11;;;;;;;8.07;2.85;;;;;;;;;;5032391;28;20114;-68
2022/05/09 14:30:51;;;;;;;3.90;2.22;;;;;;;;;;5031769;28;20401;-68
2022/05/09 14:33:39;;;;;;;9.27;2.72;;;;;;;;;;5031540;28;20072;-68
2022/05/09 14:36:35;;;;;;;9.27;3.15;;;;;;;;;;5030797;28;20080;-68
2022/05/09 14:39:24;;;;;;;11.95;2.95;;;;;;;;;;5032572;28;20037;-69
2022/05/09 14:42:16;;;;;;;10.07;3.15;;;;;;;;;;5032263;28;20026;-68
2022/05/09 14:44:43;;;;;;;9.30;2.70;;;;;;;;;;5035694;28;20041;-68
2022/05/09 14:47:31;;;;;;;17.35;4.25;;;;;;;;;;5034222;28;20684;-68
2022/05/09 14:50:07;;;;;;;6.85;2.40;;;;;;;;;;5033229;28;20777;-69
2022/05/09 14:52:50;;;;;;;6.22;2.65;;;;;;;;;;5059482;28;20034;-69
2022/05/09 14:58:26;;;;;;;8.50;2.75;;;;;;;;;;5024775;28;20107;-68
2022/05/09 15:01:11;;;;;;;8.32;2.92;;;;;;;;;;5033330;28;20045;-69
2022/05/09 15:03:52;;;;;;;11.98;3.08;;;;;;;;;;5028834;28;20044;-69
2022/05/09 15:06:20;;;;;;;7.72;2.70;;;;;;;;;;5033349;28;20164;-68
2022/05/09 15:08:52;;;;;;;7.25;2.72;;;;;;;;;;5033307;28;20035;-68
2022/05/09 15:11:31;;;;;;;11.23;2.95;;;;;;;;;;5032915;28;20115;-68
2022/05/09 15:14:03;;;;;;;5.70;2.90;;;;;;;;;;5057674;28;20037;-69
2022/05/09 15:16:45;;;;;;;10.05;2.25;;;;;;;;;;5032627;28;20778;-68
2022/05/09 15:19:23;;;;;;;8.80;2.75;;;;;;;;;;5039375;28;20033;-68
2022/05/09 15:21:54;;;;;;;10.50;3.03;;;;;;;;;;5033026;28;20041;-68
2022/05/09 15:24:27;;;;;;;11.45;3.97;;;;;;;;;;5032794;28;20436;-68
2022/05/09 15:26:52;;;;;;;10.02;3.90;;;;;;;;;;5032742;28;20396;-68
2022/05/09 15:29:24;;;;;;;11.63;3.08;;;;;;;;;;5034135;28;20116;-68
2022/05/09 15:31:57;;;;;;;6.43;3.05;;;;;;;;;;5027153;28;20044;-68
2022/05/09 15:34:22;;;;;;;15.50;3.88;;;;;;;;;;5031893;28;20037;-68
2022/05/09 15:36:54;;;;;;;7.35;3.55;;;;;;;;;;5035323;28;20540;-68
2022/05/09 15:39:27;;;;;;;13.70;4.00;;;;;;;;;;5031667;28;20041;-68
2022/05/09 15:41:53;;;;;;;10.02;3.33;;;;;;;;;;5032434;28;20033;-68
2022/05/09 15:44:29;;;;;;;11.30;3.70;;;;;;;;;;5032393;28;20046;-68
2022/05/09 15:47:01;;;;;;;9.82;3.70;;;;;;;;;;5029424;28;20069;-68